createdAt,value
2018-01-25T00:01:32.616Z,10.60
2018-01-25T00:03:59.244Z,10.60
2018-01-25T00:06:25.793Z,10.60
2018-01-25T00:08:52.207Z,10.60
2018-01-25T00:11:18.765Z,10.50
2018-01-25T00:13:46.071Z,10.50
2018-01-25T00:16:12.997Z,10.50
2018-01-25T00:18:40.163Z,10.50
2018-01-25T00:21:07.359Z,10.40
2018-01-25T00:23:33.814Z,10.40
2018-01-25T00:26:00.986Z,10.30
2018-01-25T00:28:27.441Z,10.30
2018-01-25T00:30:53.914Z,10.20
2018-01-25T00:33:20.649Z,10.20
2018-01-25T00:35:47.067Z,10.30
2018-01-25T00:38:13.467Z,10.30
2018-01-25T00:40:39.999Z,10.20
2018-01-25T00:43:06.797Z,10.10
2018-01-25T00:45:33.338Z,10.10
2018-01-25T00:48:00.658Z,10.20
2018-01-25T00:50:27.422Z,10.10
2018-01-25T00:52:53.879Z,10.20
2018-01-25T00:55:20.310Z,10.10
2018-01-25T00:57:46.934Z,10.00
2018-01-25T01:00:14.138Z,10.00
2018-01-25T01:02:40.603Z,10.00
2018-01-25T01:05:07.352Z,10.00
2018-01-25T01:07:34.545Z,10.00
2018-01-25T01:10:01.709Z,10.00
2018-01-25T01:12:28.395Z,10.00
2018-01-25T01:14:54.810Z,10.00
2018-01-25T01:17:21.259Z,10.10
2018-01-25T01:19:47.720Z,10.10
2018-01-25T01:22:14.224Z,10.10
2018-01-25T01:24:41.428Z,10.10
2018-01-25T01:27:07.896Z,10.10
2018-01-25T01:29:35.890Z,10.20
2018-01-25T01:32:03.096Z,10.20
2018-01-25T01:34:29.602Z,10.20
2018-01-25T01:36:56.050Z,10.20
2018-01-25T01:39:22.475Z,10.10
2018-01-25T01:41:49.023Z,10.10
2018-01-25T01:44:15.613Z,10.10
2018-01-25T01:46:42.959Z,10.10
2018-01-25T01:49:10.411Z,10.10
2018-01-25T01:51:36.890Z,10.10
2018-01-25T01:54:03.435Z,10.10
2018-01-25T01:56:29.871Z,10.00
2018-01-25T01:58:56.350Z,9.90
2018-01-25T02:01:23.568Z,9.80
2018-01-25T02:03:49.974Z,9.80
2018-01-25T02:06:16.544Z,9.80
2018-01-25T02:08:42.973Z,9.90
2018-01-25T02:11:09.487Z,9.90
2018-01-25T02:13:36.171Z,10.00
2018-01-25T02:16:03.341Z,10.00
2018-01-25T02:18:30.515Z,10.00
2018-01-25T02:20:57.087Z,9.90
2018-01-25T02:23:23.511Z,9.90
2018-01-25T02:25:50.384Z,9.90
2018-01-25T02:28:16.806Z,9.80
2018-01-25T02:30:44.029Z,9.70
2018-01-25T02:33:10.500Z,9.70
2018-01-25T02:35:36.893Z,9.70
2018-01-25T02:38:03.304Z,9.60
2018-01-25T02:40:29.764Z,9.60
2018-01-25T02:42:56.199Z,9.60
2018-01-25T02:45:22.659Z,9.40
2018-01-25T02:47:49.110Z,9.50
2018-01-25T02:50:15.522Z,9.50
2018-01-25T02:52:41.966Z,9.50
2018-01-25T02:55:08.433Z,9.60
2018-01-25T02:57:34.862Z,9.70
2018-01-25T03:00:02.104Z,9.90
2018-01-25T03:02:29.276Z,10.00
2018-01-25T03:04:55.681Z,10.00
2018-01-25T03:07:22.411Z,10.10
2018-01-25T03:09:48.835Z,10.20
2018-01-25T03:12:15.375Z,10.20
2018-01-25T03:14:41.807Z,10.20
2018-01-25T03:17:08.260Z,10.20
2018-01-25T03:19:35.432Z,10.10
2018-01-25T03:22:01.904Z,10.10
2018-01-25T03:24:29.181Z,10.20
2018-01-25T03:26:56.346Z,10.20
2018-01-25T03:29:23.554Z,10.20
2018-01-25T03:31:50.037Z,10.20
2018-01-25T03:34:16.548Z,10.20
2018-01-25T03:36:43.727Z,10.30
2018-01-25T03:39:10.190Z,10.30
2018-01-25T03:41:36.743Z,10.30
2018-01-25T03:44:03.181Z,10.30
2018-01-25T03:46:29.646Z,10.30
2018-01-25T03:48:56.863Z,10.20
2018-01-25T03:51:23.256Z,10.20
2018-01-25T03:53:49.756Z,10.20
2018-01-25T03:56:16.286Z,10.20
2018-01-25T03:58:42.716Z,10.10
2018-01-25T04:01:09.156Z,10.10
2018-01-25T04:03:35.789Z,10.20
2018-01-25T04:06:02.321Z,10.20
2018-01-25T04:08:28.759Z,10.30
2018-01-25T04:10:55.175Z,10.30
2018-01-25T04:13:21.613Z,10.40
2018-01-25T04:15:48.019Z,10.40
2018-01-25T04:18:14.488Z,10.40
2018-01-25T04:20:40.880Z,10.40
2018-01-25T04:23:07.350Z,10.50
2018-01-25T04:25:33.779Z,10.40
2018-01-25T04:28:00.325Z,10.50
2018-01-25T04:30:27.495Z,10.50
2018-01-25T04:32:53.935Z,10.50
2018-01-25T04:35:20.341Z,10.60
2018-01-25T04:37:47.811Z,10.60
2018-01-25T04:40:14.947Z,10.60
2018-01-25T04:42:41.434Z,10.60
2018-01-25T04:45:07.913Z,10.70
2018-01-25T04:47:34.372Z,10.80
2018-01-25T04:50:01.678Z,10.80
2018-01-25T04:52:28.884Z,10.90
2018-01-25T04:54:55.568Z,10.90
2018-01-25T04:57:22.211Z,10.90
2018-01-25T04:59:49.472Z,11.00
2018-01-25T05:02:15.890Z,11.00
2018-01-25T05:04:42.441Z,11.00
2018-01-25T05:07:09.083Z,11.10
2018-01-25T05:09:35.523Z,11.10
2018-01-25T05:12:02.051Z,11.10
2018-01-25T05:14:28.589Z,11.20
2018-01-25T05:20:02.749Z,11.20
2018-01-25T05:22:29.228Z,11.20
2018-01-25T05:24:55.694Z,11.20
2018-01-25T05:27:22.717Z,11.20
2018-01-25T05:29:49.225Z,11.30
2018-01-25T05:32:15.729Z,11.30
2018-01-25T05:34:42.923Z,11.30
2018-01-25T05:37:09.395Z,11.00
2018-01-25T05:39:35.935Z,11.20
2018-01-25T05:42:02.501Z,11.20
2018-01-25T05:44:28.980Z,11.20
2018-01-25T05:46:55.459Z,11.20
2018-01-25T05:49:22.648Z,11.20
2018-01-25T05:51:49.048Z,11.20
2018-01-25T05:54:15.520Z,11.30
2018-01-25T05:56:41.920Z,11.30
2018-01-25T05:59:08.517Z,11.40
2018-01-25T06:01:34.965Z,11.40
2018-01-25T06:04:01.489Z,11.40
2018-01-25T06:06:28.001Z,11.40
2018-01-25T06:08:55.198Z,11.40
2018-01-25T06:11:21.703Z,11.30
2018-01-25T06:13:48.859Z,11.40
2018-01-25T06:16:16.036Z,11.40
2018-01-25T06:18:42.516Z,11.40
2018-01-25T06:21:08.970Z,11.50
2018-01-25T06:23:35.448Z,11.50
2018-01-25T06:26:01.912Z,11.40
2018-01-25T06:28:28.310Z,11.50
2018-01-25T06:30:54.736Z,11.50
2018-01-25T06:33:21.133Z,11.60
2018-01-25T06:35:48.335Z,11.50
2018-01-25T06:38:14.920Z,11.50
2018-01-25T06:40:41.387Z,11.60
2018-01-25T06:43:07.839Z,11.60
2018-01-25T06:45:34.307Z,11.60
2018-01-25T06:48:00.757Z,11.70
2018-01-25T06:50:27.202Z,11.70
2018-01-25T06:52:53.622Z,11.70
2018-01-25T06:55:20.153Z,11.70
2018-01-25T06:57:47.519Z,11.80
2018-01-25T07:00:13.993Z,11.70
2018-01-25T07:02:40.505Z,11.70
2018-01-25T07:05:07.085Z,11.70
2018-01-25T07:07:33.623Z,11.80
2018-01-25T07:10:01.629Z,11.80
2018-01-25T07:12:28.071Z,11.80
2018-01-25T07:14:54.465Z,11.80
2018-01-25T07:17:20.960Z,11.80
2018-01-25T07:19:47.467Z,11.80
2018-01-25T07:22:14.786Z,11.80
2018-01-25T07:24:41.464Z,11.80
2018-01-25T07:27:08.020Z,11.80
2018-01-25T07:29:34.596Z,11.80
2018-01-25T07:32:01.974Z,11.80
2018-01-25T07:34:28.441Z,11.80
2018-01-25T07:36:54.976Z,11.80
2018-01-25T07:39:21.531Z,11.80
2018-01-25T07:41:48.121Z,11.80
2018-01-25T07:44:15.473Z,11.90
2018-01-25T07:46:42.755Z,11.90
2018-01-25T07:49:09.233Z,11.80
2018-01-25T07:51:35.690Z,11.90
2018-01-25T07:54:02.312Z,11.80
2018-01-25T07:56:28.730Z,11.80
2018-01-25T07:58:55.240Z,11.80
2018-01-25T08:01:21.765Z,11.70
2018-01-25T08:03:48.287Z,11.80
2018-01-25T08:06:14.711Z,11.80
2018-01-25T08:08:42.049Z,11.80
2018-01-25T08:11:09.269Z,11.90
2018-01-25T08:13:38.543Z,11.90
2018-01-25T08:16:11.262Z,11.90
2018-01-25T08:18:37.761Z,11.90
2018-01-25T08:21:04.893Z,11.80
2018-01-25T08:23:31.367Z,11.80
2018-01-25T08:25:57.831Z,11.80
2018-01-25T08:28:24.237Z,11.80
2018-01-25T08:30:50.711Z,11.80
2018-01-25T08:33:17.147Z,11.80
2018-01-25T08:35:44.339Z,11.90
2018-01-25T08:38:10.816Z,11.90
2018-01-25T08:40:37.278Z,11.90
2018-01-25T08:43:03.826Z,11.90
2018-01-25T08:45:30.320Z,11.90
2018-01-25T08:47:57.600Z,11.80
2018-01-25T08:50:24.143Z,11.80
2018-01-25T08:52:50.662Z,11.80
2018-01-25T08:55:17.179Z,11.80
2018-01-25T08:57:44.408Z,11.80
2018-01-25T09:00:11.041Z,11.80
2018-01-25T09:02:37.495Z,11.70
2018-01-25T09:05:05.565Z,11.60
2018-01-25T09:07:32.778Z,11.70
2018-01-25T09:10:00.009Z,11.70
2018-01-25T09:12:27.348Z,11.70
2018-01-25T09:14:54.540Z,11.70
2018-01-25T09:17:21.124Z,11.60
2018-01-25T09:19:48.342Z,11.50
2018-01-25T09:22:15.068Z,11.60
2018-01-25T09:24:41.678Z,11.50
2018-01-25T09:27:08.188Z,11.50
2018-01-25T09:29:35.443Z,11.50
2018-01-25T09:32:02.711Z,11.50
2018-01-25T09:34:29.251Z,11.50
2018-01-25T09:36:55.781Z,11.50
2018-01-25T09:39:22.231Z,11.50
2018-01-25T09:41:48.653Z,11.50
2018-01-25T09:44:15.173Z,11.50
2018-01-25T09:46:42.514Z,11.40
2018-01-25T09:49:09.686Z,11.40
2018-01-25T09:51:36.200Z,11.40
2018-01-25T09:54:02.706Z,11.40
2018-01-25T09:56:29.226Z,11.40
2018-01-25T09:58:56.614Z,11.40
2018-01-25T10:01:23.998Z,11.40
2018-01-25T10:03:50.426Z,11.40
2018-01-25T10:06:16.940Z,11.40
2018-01-25T10:08:43.367Z,11.40
2018-01-25T10:11:10.579Z,11.50
2018-01-25T10:13:37.121Z,11.50
2018-01-25T10:16:03.555Z,11.60
2018-01-25T10:18:29.979Z,11.60
2018-01-25T10:20:57.107Z,11.70
2018-01-25T10:23:23.523Z,11.70
2018-01-25T10:25:50.690Z,11.80
2018-01-25T10:28:17.302Z,11.70
2018-01-25T10:30:44.486Z,11.70
2018-01-25T10:33:11.623Z,11.70
2018-01-25T10:35:38.773Z,11.80
2018-01-25T10:38:05.206Z,11.80
2018-01-25T10:40:32.531Z,11.90
2018-01-25T10:42:58.983Z,11.90
2018-01-25T10:45:26.181Z,11.80
2018-01-25T10:47:52.705Z,11.80
2018-01-25T10:50:19.226Z,11.80
2018-01-25T10:52:45.720Z,11.80
2018-01-25T10:55:12.907Z,11.90
2018-01-25T10:57:39.572Z,11.90
2018-01-25T11:00:06.060Z,11.90
2018-01-25T11:02:33.393Z,12.00
2018-01-25T11:04:59.930Z,12.00
2018-01-25T11:07:26.658Z,12.00
2018-01-25T11:09:53.104Z,12.00
2018-01-25T11:12:20.345Z,12.00
2018-01-25T11:14:46.891Z,11.90
2018-01-25T11:17:14.230Z,11.90
2018-01-25T11:19:41.507Z,11.80
2018-01-25T11:22:08.031Z,11.80
2018-01-25T11:24:35.424Z,11.70
2018-01-25T11:27:02.047Z,11.70
2018-01-25T11:29:28.571Z,11.60
2018-01-25T11:31:55.062Z,11.60
2018-01-25T11:34:21.614Z,11.60
2018-01-25T11:36:48.030Z,11.60
2018-01-25T11:39:14.494Z,11.70
2018-01-25T11:41:40.963Z,11.80
2018-01-25T11:44:07.574Z,11.80
2018-01-25T11:46:34.731Z,12.00
2018-01-25T11:49:02.051Z,12.00
2018-01-25T11:51:28.479Z,12.00
2018-01-25T11:53:54.942Z,12.10
2018-01-25T11:56:21.402Z,12.10
2018-01-25T11:58:48.022Z,12.10
2018-01-25T12:01:14.530Z,12.10
2018-01-25T12:03:41.770Z,12.10
2018-01-25T12:06:08.427Z,12.10
2018-01-25T12:08:34.996Z,12.10
2018-01-25T12:11:01.916Z,12.10
2018-01-25T12:13:29.061Z,12.00
2018-01-25T12:15:55.994Z,12.00
2018-01-25T12:18:22.605Z,11.90
2018-01-25T12:20:48.989Z,11.80
2018-01-25T12:23:16.189Z,11.80
2018-01-25T12:25:42.865Z,11.80
2018-01-25T12:28:09.484Z,11.90
2018-01-25T12:30:35.964Z,11.90
2018-01-25T12:33:03.219Z,11.90
2018-01-25T12:35:30.428Z,12.00
2018-01-25T12:37:56.884Z,11.90
2018-01-25T12:40:24.352Z,11.90
2018-01-25T12:42:50.824Z,11.90
2018-01-25T12:45:17.266Z,11.90
2018-01-25T12:47:43.751Z,11.90
2018-01-25T12:50:11.088Z,11.80
2018-01-25T12:52:37.613Z,11.80
2018-01-25T12:55:04.947Z,11.80
2018-01-25T12:57:31.447Z,11.80
2018-01-25T12:59:58.045Z,11.70
2018-01-25T13:02:25.395Z,11.60
2018-01-25T13:04:52.662Z,11.60
2018-01-25T13:07:19.152Z,11.60
2018-01-25T13:09:45.774Z,11.50
2018-01-25T13:12:12.312Z,11.50
2018-01-25T13:14:38.750Z,11.60
2018-01-25T13:17:05.246Z,11.70
2018-01-25T13:19:31.687Z,11.80
2018-01-25T13:21:58.191Z,11.80
2018-01-25T13:24:25.444Z,12.00
2018-01-25T13:26:52.623Z,12.00
2018-01-25T13:29:19.085Z,12.00
2018-01-25T13:31:45.559Z,12.00
2018-01-25T13:34:12.807Z,12.10
2018-01-25T13:36:39.564Z,12.10
2018-01-25T13:39:06.073Z,12.00
2018-01-25T13:41:32.626Z,12.10
2018-01-25T13:43:59.334Z,12.10
2018-01-25T13:46:25.895Z,12.10
2018-01-25T13:48:52.376Z,12.10
2018-01-25T13:51:19.489Z,12.10
2018-01-25T13:53:46.333Z,12.00
2018-01-25T13:56:13.178Z,12.10
2018-01-25T13:58:39.640Z,12.00
2018-01-25T14:01:06.501Z,12.00
2018-01-25T14:03:32.697Z,12.00
2018-01-25T14:05:59.901Z,12.00
2018-01-25T14:08:26.562Z,11.90
2018-01-25T14:10:53.922Z,11.90
2018-01-25T14:13:21.111Z,12.00
2018-01-25T14:15:47.600Z,11.90
2018-01-25T14:18:14.770Z,11.90
2018-01-25T14:20:41.288Z,11.90
2018-01-25T14:23:08.478Z,11.80
2018-01-25T14:25:34.900Z,11.80
2018-01-25T14:28:03.174Z,11.60
2018-01-25T14:30:30.394Z,11.60
2018-01-25T14:32:56.896Z,11.50
2018-01-25T14:35:23.330Z,11.50
2018-01-25T14:37:49.814Z,11.50
2018-01-25T14:40:17.047Z,11.40
2018-01-25T14:42:50.920Z,11.40
2018-01-25T14:45:17.900Z,11.40
2018-01-25T14:47:44.526Z,11.40
2018-01-25T14:50:11.762Z,11.40
2018-01-25T14:52:38.220Z,11.40
2018-01-25T14:55:04.689Z,11.40
2018-01-25T14:57:31.169Z,11.30
2018-01-25T14:59:57.829Z,11.30
2018-01-25T15:02:25.067Z,11.20
2018-01-25T15:04:52.323Z,11.30
2018-01-25T15:07:19.893Z,11.20
2018-01-25T15:09:46.679Z,11.30
2018-01-25T15:12:13.680Z,11.20
2018-01-25T15:14:40.173Z,11.20
2018-01-25T15:17:06.656Z,11.20
2018-01-25T15:19:33.171Z,11.10
2018-01-25T15:21:59.634Z,11.10
2018-01-25T15:24:26.804Z,11.10
2018-01-25T15:26:53.938Z,11.10
2018-01-25T15:29:20.543Z,11.10
2018-01-25T15:31:48.010Z,11.00
2018-01-25T15:34:14.819Z,11.00
2018-01-25T15:36:41.097Z,11.00
2018-01-25T15:39:07.563Z,10.90
2018-01-25T15:41:34.046Z,10.90
2018-01-25T15:44:01.492Z,10.90
2018-01-25T15:46:28.041Z,10.90
2018-01-25T15:48:55.452Z,10.90
2018-01-25T15:51:22.741Z,10.90
2018-01-25T15:53:49.338Z,10.80
2018-01-25T15:56:15.827Z,10.80
2018-01-25T15:58:43.152Z,10.80
2018-01-25T16:01:09.712Z,10.70
2018-01-25T16:03:36.324Z,10.80
2018-01-25T16:06:02.848Z,10.70
2018-01-25T16:08:29.373Z,10.80
2018-01-25T16:10:56.160Z,10.70
2018-01-25T16:13:22.697Z,10.70
2018-01-25T16:15:49.263Z,10.70
2018-01-25T16:18:17.561Z,10.70
2018-01-25T16:20:44.003Z,10.70
2018-01-25T16:23:10.683Z,10.70
2018-01-25T16:25:37.275Z,10.60
2018-01-25T16:28:03.851Z,10.60
2018-01-25T16:30:31.352Z,10.60
2018-01-25T16:32:57.864Z,10.60
2018-01-25T16:35:25.239Z,10.60
2018-01-25T16:37:51.720Z,10.60
2018-01-25T16:40:18.355Z,10.60
2018-01-25T16:42:44.906Z,10.50
2018-01-25T16:45:11.417Z,10.50
2018-01-25T16:47:37.902Z,10.50
2018-01-25T16:50:04.449Z,10.50
2018-01-25T16:52:30.904Z,10.50
2018-01-25T16:54:57.487Z,10.50
2018-01-25T16:57:24.015Z,10.60
2018-01-25T16:59:50.553Z,10.60
2018-01-25T17:02:17.766Z,10.60
2018-01-25T17:04:44.220Z,10.60
2018-01-25T17:07:10.692Z,10.50
2018-01-25T17:09:37.196Z,10.50
2018-01-25T17:12:03.850Z,10.50
2018-01-25T17:14:30.349Z,10.50
2018-01-25T17:16:56.823Z,10.50
2018-01-25T17:19:24.026Z,10.50
2018-01-25T17:21:50.691Z,10.50
2018-01-25T17:24:18.019Z,10.40
2018-01-25T17:26:44.694Z,10.40
2018-01-25T17:29:12.022Z,10.40
2018-01-25T17:31:38.786Z,10.40
2018-01-25T17:34:05.233Z,10.50
2018-01-25T17:36:32.408Z,10.50
2018-01-25T17:38:58.896Z,10.40
2018-01-25T17:41:25.356Z,10.40
2018-01-25T17:43:51.873Z,10.40
2018-01-25T17:46:18.315Z,10.40
2018-01-25T17:48:45.659Z,10.40
2018-01-25T17:51:12.129Z,10.40
2018-01-25T17:53:38.733Z,10.40
2018-01-25T17:56:05.266Z,10.40
2018-01-25T17:58:32.600Z,10.50
2018-01-25T18:00:59.128Z,10.40
2018-01-25T18:03:25.613Z,10.50
2018-01-25T18:05:52.236Z,10.50
2018-01-25T18:08:26.417Z,10.40
2018-01-25T18:10:53.637Z,10.40
2018-01-25T18:13:20.074Z,10.40
2018-01-25T18:15:46.571Z,10.40
2018-01-25T18:18:13.028Z,10.40
2018-01-25T18:20:39.510Z,10.40
2018-01-25T18:23:06.034Z,10.30
2018-01-25T18:25:32.459Z,10.30
2018-01-25T18:27:58.877Z,10.30
2018-01-25T18:30:25.667Z,10.30
2018-01-25T18:32:52.305Z,10.40
2018-01-25T18:35:19.537Z,10.40
2018-01-25T18:37:46.059Z,10.40
2018-01-25T18:40:12.546Z,10.40
2018-01-25T18:42:39.756Z,10.40
2018-01-25T18:45:06.216Z,10.40
2018-01-25T18:47:32.702Z,10.40
2018-01-25T18:49:59.183Z,10.30
2018-01-25T18:52:26.414Z,10.40
2018-01-25T18:54:52.904Z,10.30
2018-01-25T18:57:19.330Z,10.40
2018-01-25T18:59:45.941Z,10.40
2018-01-25T19:02:12.582Z,10.40
2018-01-25T19:04:39.417Z,10.40
2018-01-25T19:07:06.016Z,10.40
2018-01-25T19:09:33.307Z,10.40
2018-01-25T19:12:00.045Z,10.40
2018-01-25T19:14:26.690Z,10.40
2018-01-25T19:16:53.431Z,10.40
2018-01-25T19:19:19.899Z,10.40
2018-01-25T19:21:46.365Z,10.40
2018-01-25T19:24:12.798Z,10.40
2018-01-25T19:26:39.255Z,10.40
2018-01-25T19:29:05.871Z,10.40
2018-01-25T19:31:32.299Z,10.40
2018-01-25T19:33:58.746Z,10.40
2018-01-25T19:36:25.701Z,10.40
2018-01-25T19:38:52.283Z,10.40
2018-01-25T19:41:18.779Z,10.40
2018-01-25T19:43:45.256Z,10.40
2018-01-25T19:46:12.564Z,10.40
2018-01-25T19:48:39.117Z,10.40
2018-01-25T19:51:06.546Z,10.40
2018-01-25T19:53:33.202Z,10.40
2018-01-25T19:55:59.840Z,10.40
2018-01-25T19:58:27.097Z,10.30
2018-01-25T20:00:53.825Z,10.30
2018-01-25T20:03:20.301Z,10.30
2018-01-25T20:05:46.995Z,10.30
2018-01-25T20:08:13.621Z,10.30
2018-01-25T20:10:40.287Z,10.30
2018-01-25T20:13:08.982Z,10.30
2018-01-25T20:15:36.223Z,10.30
2018-01-25T20:18:03.682Z,10.30
2018-01-25T20:20:31.217Z,10.30
2018-01-25T20:22:57.688Z,10.30
2018-01-25T20:25:24.398Z,10.30
2018-01-25T20:27:51.611Z,10.30
2018-01-25T20:30:18.138Z,10.30
2018-01-25T20:32:44.824Z,10.30
2018-01-25T20:35:11.464Z,10.30
2018-01-25T20:37:38.305Z,10.30
2018-01-25T20:40:05.052Z,10.30
2018-01-25T20:42:31.633Z,10.30
2018-01-25T20:44:58.111Z,10.20
2018-01-25T20:47:25.565Z,10.30
2018-01-25T20:49:52.783Z,10.30
2018-01-25T20:52:19.207Z,10.30
2018-01-25T20:54:45.647Z,10.30
2018-01-25T20:57:12.123Z,10.20
2018-01-25T20:59:38.542Z,10.20
2018-01-25T21:02:04.950Z,10.20
2018-01-25T21:04:31.938Z,10.20
2018-01-25T21:06:58.408Z,10.30
2018-01-25T21:09:25.568Z,10.30
2018-01-25T21:11:52.032Z,10.20
2018-01-25T21:14:18.440Z,10.20
2018-01-25T21:16:44.919Z,10.20
2018-01-25T21:19:12.097Z,10.10
2018-01-25T21:21:38.618Z,10.10
2018-01-25T21:24:05.160Z,10.10
2018-01-25T21:26:32.493Z,10.10
2018-01-25T21:28:58.955Z,10.10
2018-01-25T21:31:25.462Z,10.10
2018-01-25T21:33:52.712Z,10.00
2018-01-25T21:36:20.733Z,10.00
2018-01-25T21:38:47.168Z,10.00
2018-01-25T21:41:13.673Z,10.10
2018-01-25T21:43:41.002Z,10.00
2018-01-25T21:46:08.296Z,10.00
2018-01-25T21:48:35.980Z,10.10
2018-01-25T21:51:02.560Z,10.00
2018-01-25T21:53:28.987Z,10.10
2018-01-25T21:55:55.511Z,10.10
2018-01-25T21:58:22.033Z,10.10
2018-01-25T22:00:48.478Z,10.10
2018-01-25T22:03:15.017Z,10.00
2018-01-25T22:05:41.431Z,10.00
2018-01-25T22:08:07.937Z,10.00
2018-01-25T22:10:34.791Z,10.00
2018-01-25T22:13:02.290Z,10.10
2018-01-25T22:15:28.898Z,10.10
2018-01-25T22:17:55.580Z,10.10
2018-01-25T22:20:22.118Z,10.10
2018-01-25T22:22:49.880Z,10.00
2018-01-25T22:25:16.410Z,10.00
2018-01-25T22:27:42.931Z,9.90
2018-01-25T22:30:10.367Z,9.90
2018-01-25T22:32:38.722Z,9.80
2018-01-25T22:35:05.411Z,9.80
2018-01-25T22:37:31.945Z,9.80
2018-01-25T22:39:59.413Z,9.80
2018-01-25T22:42:25.937Z,9.80
2018-01-25T22:44:53.289Z,9.90
2018-01-25T22:47:20.620Z,9.90
2018-01-25T22:49:48.220Z,9.90
2018-01-25T22:52:14.946Z,9.90
2018-01-25T22:54:42.506Z,9.80
2018-01-25T22:57:09.048Z,9.80
2018-01-25T22:59:36.794Z,9.80
2018-01-25T23:02:03.652Z,9.80
2018-01-25T23:04:30.150Z,9.70
2018-01-25T23:06:56.676Z,9.70
2018-01-25T23:09:23.178Z,9.70
2018-01-25T23:11:49.753Z,9.70
2018-01-25T23:14:17.049Z,9.70
2018-01-25T23:16:43.912Z,9.70
2018-01-25T23:19:11.265Z,9.80
2018-01-25T23:21:37.881Z,9.80
2018-01-25T23:24:04.473Z,9.70
2018-01-25T23:26:31.056Z,9.70
2018-01-25T23:28:57.586Z,9.70
2018-01-25T23:31:24.308Z,9.70
2018-01-25T23:33:50.848Z,9.60
2018-01-25T23:36:18.150Z,9.70
2018-01-25T23:38:44.858Z,9.70
2018-01-25T23:41:11.372Z,9.60
2018-01-25T23:43:37.930Z,9.70
2018-01-25T23:46:05.385Z,9.70
2018-01-25T23:48:31.913Z,9.60
2018-01-25T23:50:58.389Z,9.60
2018-01-25T23:53:25.088Z,9.70
2018-01-25T23:55:51.773Z,9.70
2018-01-25T23:58:18.283Z,9.60
